createdAt,value
2019-05-10T00:00:59.857Z,25.35
2019-05-10T00:03:21.625Z,25.15
2019-05-10T00:05:44.030Z,25.65
2019-05-10T00:08:05.549Z,25.75
2019-05-10T00:10:08.621Z,26.15
2019-05-10T00:12:14.074Z,27.13
2019-05-10T00:14:31.861Z,29.72
2019-05-10T00:16:35.507Z,27.35
2019-05-10T00:18:39.221Z,29.02
2019-05-10T00:20:42.812Z,27.82
2019-05-10T00:22:46.662Z,29.27
2019-05-10T00:25:03.354Z,27.65
2019-05-10T00:26:56.059Z,27.60
2019-05-10T00:28:59.569Z,26.82
2019-05-10T00:31:03.257Z,26.02
2019-05-10T00:33:06.877Z,27.42
2019-05-10T00:35:10.706Z,26.45
2019-05-10T00:37:14.359Z,26.90
2019-05-10T00:39:19.524Z,27.70
2019-05-10T00:41:23.498Z,26.52
2019-05-10T00:43:27.474Z,28.45
2019-05-10T00:45:31.030Z,36.15
2019-05-10T00:47:34.570Z,37.38
2019-05-10T00:49:38.250Z,43.48
2019-05-10T00:51:42.660Z,32.78
2019-05-10T00:53:46.224Z,28.57
2019-05-10T00:55:49.765Z,25.82
2019-05-10T00:57:53.564Z,26.48
2019-05-10T00:59:57.426Z,25.48
2019-05-10T01:02:01.065Z,23.80
2019-05-10T01:04:04.968Z,24.45
2019-05-10T01:06:08.580Z,24.27
2019-05-10T01:08:12.116Z,24.23
2019-05-10T01:10:15.812Z,25.65
2019-05-10T01:12:19.313Z,25.08
2019-05-10T01:14:22.973Z,26.50
2019-05-10T01:16:26.612Z,29.72
2019-05-10T01:18:30.095Z,31.65
2019-05-10T01:20:33.973Z,29.90
2019-05-10T01:22:37.661Z,26.40
2019-05-10T01:24:41.553Z,25.08
2019-05-10T01:26:45.557Z,24.00
2019-05-10T01:28:49.110Z,25.05
2019-05-10T01:30:52.688Z,23.90
2019-05-10T01:32:56.408Z,23.12
2019-05-10T01:34:59.876Z,23.40
2019-05-10T01:37:03.545Z,24.35
2019-05-10T01:39:07.338Z,25.00
2019-05-10T01:41:10.969Z,29.77
2019-05-10T01:43:14.523Z,30.37
2019-05-10T01:45:18.290Z,31.62
2019-05-10T01:47:22.538Z,29.50
2019-05-10T01:49:25.995Z,29.30
2019-05-10T01:51:29.733Z,29.50
2019-05-10T01:53:33.253Z,29.20
2019-05-10T01:55:50.966Z,31.05
2019-05-10T01:57:42.049Z,32.75
2019-05-10T01:59:45.641Z,31.27
2019-05-10T02:01:49.226Z,32.35
2019-05-10T02:03:52.850Z,31.60
2019-05-10T02:05:56.453Z,34.27
2019-05-10T02:07:59.949Z,28.30
2019-05-10T02:10:08.495Z,27.80
2019-05-10T02:12:12.022Z,25.80
2019-05-10T02:14:15.568Z,28.77
2019-05-10T02:16:19.181Z,29.55
2019-05-10T02:18:22.765Z,26.62
2019-05-10T02:20:26.325Z,26.97
2019-05-10T02:22:29.873Z,28.85
2019-05-10T02:24:33.617Z,27.77
2019-05-10T02:26:37.156Z,32.00
2019-05-10T02:28:40.696Z,35.00
2019-05-10T02:30:44.314Z,29.23
2019-05-10T02:32:48.176Z,27.90
2019-05-10T02:34:51.681Z,26.55
2019-05-10T02:36:55.482Z,25.57
2019-05-10T02:38:59.486Z,28.67
2019-05-10T02:41:03.505Z,31.12
2019-05-10T02:43:07.141Z,27.62
2019-05-10T02:45:11.532Z,25.92
2019-05-10T02:47:15.397Z,25.88
2019-05-10T02:49:19.294Z,24.45
2019-05-10T02:51:22.917Z,25.15
2019-05-10T02:53:26.527Z,25.35
2019-05-10T02:55:31.121Z,25.55
2019-05-10T02:57:36.594Z,27.75
2019-05-10T02:59:41.751Z,29.70
2019-05-10T03:01:46.138Z,31.52
2019-05-10T03:03:52.753Z,36.48
2019-05-10T03:05:57.639Z,37.15
2019-05-10T03:08:03.767Z,31.60
2019-05-10T03:10:09.932Z,32.23
2019-05-10T03:12:21.882Z,32.60
2019-05-10T03:14:28.571Z,32.25
2019-05-10T03:16:35.296Z,41.40
2019-05-10T03:18:41.572Z,33.83
2019-05-10T03:20:48.121Z,29.48
2019-05-10T03:22:53.002Z,27.42
2019-05-10T03:24:56.629Z,24.18
2019-05-10T03:27:00.167Z,24.52
2019-05-10T03:29:03.865Z,25.57
2019-05-10T03:31:07.656Z,25.65
2019-05-10T03:33:11.622Z,23.25
2019-05-10T03:35:15.647Z,24.85
2019-05-10T03:37:19.634Z,24.15
2019-05-10T03:39:23.226Z,26.25
2019-05-10T03:41:26.926Z,24.50
2019-05-10T03:43:30.590Z,28.12
2019-05-10T03:45:34.181Z,26.35
2019-05-10T03:47:38.162Z,31.37
2019-05-10T03:49:42.193Z,40.67
2019-05-10T03:51:45.739Z,27.80
2019-05-10T03:53:49.272Z,28.98
2019-05-10T03:55:53.166Z,26.95
2019-05-10T03:57:57.120Z,23.38
2019-05-10T04:00:00.961Z,21.52
2019-05-10T04:02:04.579Z,20.97
2019-05-10T04:04:09.737Z,21.62
2019-05-10T04:06:13.621Z,22.40
2019-05-10T04:08:17.190Z,27.25
2019-05-10T04:10:21.177Z,27.35
2019-05-10T04:12:24.883Z,29.92
2019-05-10T04:14:28.576Z,26.23
2019-05-10T04:16:32.069Z,25.95
2019-05-10T04:18:35.605Z,23.55
2019-05-10T04:20:39.614Z,26.33
2019-05-10T04:22:43.247Z,23.85
2019-05-10T04:24:46.799Z,22.07
2019-05-10T04:26:50.420Z,21.85
2019-05-10T04:28:53.949Z,22.67
2019-05-10T04:30:57.562Z,22.77
2019-05-10T04:33:02.427Z,21.73
2019-05-10T04:35:06.906Z,23.22
2019-05-10T04:37:10.828Z,23.98
2019-05-10T04:39:14.365Z,24.98
2019-05-10T04:41:17.903Z,23.25
2019-05-10T04:43:21.559Z,25.80
2019-05-10T04:45:25.434Z,26.27
2019-05-10T04:47:29.331Z,24.80
2019-05-10T04:49:32.885Z,23.70
2019-05-10T04:51:37.324Z,26.23
2019-05-10T04:53:40.888Z,27.00
2019-05-10T04:55:45.774Z,27.13
2019-05-10T04:57:51.247Z,26.37
2019-05-10T04:59:55.326Z,26.12
2019-05-10T05:01:58.915Z,28.02
2019-05-10T05:04:02.599Z,28.60
2019-05-10T05:06:06.217Z,30.40
2019-05-10T05:08:09.829Z,31.52
2019-05-10T05:10:13.965Z,30.10
2019-05-10T05:12:17.435Z,29.95
2019-05-10T05:14:21.116Z,29.23
2019-05-10T05:16:26.017Z,31.85
2019-05-10T05:18:29.687Z,35.80
2019-05-10T05:20:33.261Z,41.98
2019-05-10T05:22:36.732Z,46.02
2019-05-10T05:24:40.281Z,42.40
2019-05-10T05:26:43.759Z,40.10
2019-05-10T05:28:47.627Z,41.15
2019-05-10T05:30:51.270Z,41.88
2019-05-10T05:32:56.916Z,42.48
2019-05-10T05:35:00.499Z,45.25
2019-05-10T05:37:04.108Z,40.58
2019-05-10T05:39:08.646Z,42.08
2019-05-10T05:41:12.177Z,39.90
2019-05-10T05:43:15.725Z,40.00
2019-05-10T05:45:20.195Z,37.90
2019-05-10T05:47:24.105Z,37.85
2019-05-10T05:49:27.713Z,44.18
2019-05-10T05:51:31.337Z,37.28
2019-05-10T05:53:35.931Z,38.78
2019-05-10T05:55:41.150Z,39.53
2019-05-10T05:57:44.697Z,37.93
2019-05-10T05:59:49.184Z,39.53
2019-05-10T06:01:52.863Z,38.10
2019-05-10T06:04:00.121Z,38.20
2019-05-10T06:06:01.915Z,37.98
2019-05-10T06:08:21.838Z,36.93
2019-05-10T06:10:16.902Z,37.33
2019-05-10T06:12:16.321Z,37.17
2019-05-10T06:14:19.869Z,33.53
2019-05-10T06:16:23.686Z,33.80
2019-05-10T06:18:27.725Z,35.25
2019-05-10T06:20:31.729Z,35.73
2019-05-10T06:22:38.327Z,38.30
2019-05-10T06:24:40.689Z,39.27
2019-05-10T06:26:44.214Z,39.35
2019-05-10T06:28:59.696Z,37.58
2019-05-10T06:30:53.284Z,37.93
2019-05-10T06:33:00.944Z,39.85
2019-05-10T06:35:02.497Z,36.77
2019-05-10T06:37:06.144Z,35.40
2019-05-10T06:39:10.243Z,35.20
2019-05-10T06:41:17.040Z,34.53
2019-05-10T06:43:18.983Z,35.55
2019-05-10T06:45:22.696Z,34.43
2019-05-10T06:47:26.261Z,34.78
2019-05-10T06:49:29.877Z,34.73
2019-05-10T06:51:33.424Z,34.88
2019-05-10T06:53:42.250Z,32.63
2019-05-10T06:55:42.085Z,32.73
2019-05-10T06:57:50.423Z,34.73
2019-05-10T06:59:50.910Z,34.35
2019-05-10T07:01:54.453Z,34.98
2019-05-10T07:03:58.406Z,34.15
2019-05-10T07:06:01.981Z,32.08
2019-05-10T07:08:14.210Z,32.25
2019-05-10T07:10:18.786Z,33.30
2019-05-10T07:12:18.421Z,29.55
2019-05-10T07:14:25.613Z,30.62
2019-05-10T07:16:26.938Z,28.73
2019-05-10T07:18:30.473Z,31.73
2019-05-10T07:20:34.145Z,34.05
2019-05-10T07:22:37.623Z,31.17
2019-05-10T07:24:41.181Z,32.08
2019-05-10T07:26:44.730Z,33.02
2019-05-10T07:28:51.818Z,33.25
2019-05-10T07:30:54.573Z,32.83
2019-05-10T07:32:59.768Z,32.80
2019-05-10T07:35:04.352Z,33.65
2019-05-10T07:37:08.263Z,32.42
2019-05-10T07:39:12.162Z,34.45
2019-05-10T07:41:19.355Z,35.45
2019-05-10T07:43:26.619Z,40.58
2019-05-10T07:45:27.352Z,35.25
2019-05-10T07:47:32.655Z,33.23
2019-05-10T07:49:36.602Z,33.38
2019-05-10T07:51:40.986Z,33.08
2019-05-10T07:53:44.805Z,33.80
2019-05-10T07:55:48.776Z,38.50
2019-05-10T07:57:52.297Z,39.13
2019-05-10T07:59:57.540Z,31.80
2019-05-10T08:02:05.818Z,31.65
2019-05-10T08:04:08.857Z,31.35
2019-05-10T08:06:15.307Z,29.60
2019-05-10T08:08:19.194Z,28.95
2019-05-10T08:10:23.128Z,31.90
2019-05-10T08:12:28.863Z,29.18
2019-05-10T08:14:32.341Z,30.95
2019-05-10T08:16:35.881Z,28.12
2019-05-10T08:18:42.326Z,26.42
2019-05-10T08:20:53.542Z,25.20
2019-05-10T08:22:52.399Z,25.85
2019-05-10T08:24:56.559Z,24.65
2019-05-10T08:27:07.985Z,26.55
2019-05-10T08:29:07.664Z,23.57
2019-05-10T08:31:12.400Z,25.65
2019-05-10T08:33:16.423Z,25.32
2019-05-10T08:35:20.321Z,22.77
2019-05-10T08:37:31.001Z,24.63
2019-05-10T08:39:35.251Z,22.82
2019-05-10T08:41:35.930Z,19.65
2019-05-10T08:43:40.766Z,20.77
2019-05-10T08:45:49.381Z,20.02
2019-05-10T08:47:52.632Z,19.82
2019-05-10T08:50:09.363Z,19.35
2019-05-10T08:52:02.928Z,19.42
2019-05-10T08:54:06.521Z,20.55
2019-05-10T08:56:13.892Z,22.77
2019-05-10T08:58:21.633Z,22.95
2019-05-10T09:00:40.149Z,23.10
2019-05-10T09:02:29.125Z,24.37
2019-05-10T09:04:41.676Z,25.82
2019-05-10T09:06:36.530Z,26.10
2019-05-10T09:08:40.106Z,23.80
2019-05-10T09:10:43.837Z,25.05
2019-05-10T09:12:57.635Z,23.12
2019-05-10T09:15:00.680Z,25.50
2019-05-10T09:17:01.715Z,31.42
2019-05-10T09:19:04.165Z,27.10
2019-05-10T09:21:08.853Z,26.60
2019-05-10T09:23:18.664Z,26.55
2019-05-10T09:25:20.083Z,25.23
2019-05-10T09:27:29.177Z,25.15
2019-05-10T09:29:35.217Z,26.60
2019-05-10T09:31:39.385Z,26.75
2019-05-10T09:33:49.284Z,27.27
2019-05-10T09:35:51.507Z,25.48
2019-05-10T09:37:54.030Z,23.05
2019-05-10T09:40:05.917Z,23.67
2019-05-10T09:42:07.989Z,20.48
2019-05-10T09:44:08.763Z,20.52
2019-05-10T09:46:14.121Z,25.12
2019-05-10T09:48:17.742Z,23.20
2019-05-10T09:50:22.952Z,23.60
2019-05-10T09:52:26.766Z,22.22
2019-05-10T09:54:33.525Z,23.60
2019-05-10T09:56:39.522Z,22.25
2019-05-10T09:58:41.467Z,22.77
2019-05-10T10:00:48.350Z,25.40
2019-05-10T10:02:56.242Z,22.00
2019-05-10T10:04:58.639Z,21.80
2019-05-10T10:07:01.429Z,24.23
2019-05-10T10:09:07.912Z,21.42
2019-05-10T10:11:15.842Z,19.87
2019-05-10T10:13:35.710Z,19.67
2019-05-10T10:15:29.848Z,19.50
2019-05-10T10:17:30.744Z,19.00
2019-05-10T10:19:34.025Z,19.10
2019-05-10T10:21:38.885Z,19.27
2019-05-10T10:23:42.815Z,20.40
2019-05-10T10:25:48.389Z,19.90
2019-05-10T10:27:52.241Z,21.05
2019-05-10T10:29:57.328Z,20.70
2019-05-10T10:32:00.990Z,23.73
2019-05-10T10:34:07.324Z,22.15
2019-05-10T10:36:10.696Z,18.30
2019-05-10T10:38:14.456Z,17.05
2019-05-10T10:40:18.423Z,17.73
2019-05-10T10:42:22.030Z,16.57
2019-05-10T10:44:27.105Z,16.70
2019-05-10T10:46:34.070Z,16.15
2019-05-10T10:48:37.011Z,13.98
2019-05-10T10:50:44.495Z,15.43
2019-05-10T10:52:45.901Z,15.30
2019-05-10T10:54:49.860Z,15.83
2019-05-10T10:56:53.838Z,18.20
2019-05-10T10:58:58.021Z,15.45
2019-05-10T11:01:02.130Z,14.40
2019-05-10T11:03:07.600Z,14.00
2019-05-10T11:05:11.585Z,12.45
2019-05-10T11:07:15.157Z,13.68
2019-05-10T11:09:20.695Z,14.00
2019-05-10T11:11:24.369Z,13.43
2019-05-10T11:13:41.496Z,13.93
2019-05-10T11:15:36.116Z,12.40
2019-05-10T11:17:40.750Z,12.37
2019-05-10T11:19:45.875Z,11.38
2019-05-10T11:21:51.432Z,11.28
2019-05-10T11:23:54.891Z,10.00
2019-05-10T11:26:01.191Z,9.65
2019-05-10T11:28:03.989Z,9.50
2019-05-10T11:30:08.341Z,8.90
2019-05-10T11:32:16.536Z,8.58
2019-05-10T11:34:17.717Z,9.68
2019-05-10T11:36:21.565Z,8.60
2019-05-10T11:38:25.450Z,8.05
2019-05-10T11:40:32.638Z,7.45
2019-05-10T11:42:37.361Z,10.63
2019-05-10T11:44:41.501Z,8.10
2019-05-10T11:46:45.680Z,7.90
2019-05-10T11:48:51.004Z,7.37
2019-05-10T11:50:54.854Z,7.60
2019-05-10T11:53:00.856Z,7.87
2019-05-10T11:55:05.177Z,8.53
2019-05-10T11:57:13.435Z,9.33
2019-05-10T11:59:16.419Z,11.33
2019-05-10T12:01:22.243Z,9.73
2019-05-10T12:03:25.919Z,7.65
2019-05-10T12:05:31.983Z,8.25
2019-05-10T12:07:42.841Z,7.20
2019-05-10T12:09:42.446Z,8.20
2019-05-10T12:11:51.898Z,12.23
2019-05-10T12:13:56.786Z,9.35
2019-05-10T12:15:56.766Z,6.70
2019-05-10T12:18:04.562Z,5.50
2019-05-10T12:20:06.252Z,6.15
2019-05-10T12:22:15.512Z,5.53
2019-05-10T12:26:29.497Z,5.87
2019-05-10T12:28:29.063Z,5.47
2019-05-10T12:30:35.051Z,5.22
2019-05-10T12:32:54.631Z,5.62
2019-05-10T12:34:45.992Z,6.22
2019-05-10T12:36:51.975Z,5.30
2019-05-10T12:38:58.753Z,5.42
2019-05-10T12:41:05.090Z,5.33
2019-05-10T12:43:07.105Z,6.47
2019-05-10T12:45:10.961Z,6.53
2019-05-10T12:47:14.962Z,6.05
2019-05-10T12:49:21.332Z,5.87
2019-05-10T12:51:24.197Z,5.17
2019-05-10T12:53:28.126Z,5.65
2019-05-10T12:55:32.390Z,7.30
2019-05-10T12:57:36.421Z,7.42
2019-05-10T12:59:39.957Z,7.45
2019-05-10T13:01:43.717Z,6.08
2019-05-10T13:03:47.321Z,5.58
2019-05-10T13:05:52.840Z,5.25
2019-05-10T13:07:56.128Z,4.25
2019-05-10T13:10:03.748Z,4.40
2019-05-10T13:12:06.285Z,5.30
2019-05-10T13:14:10.272Z,3.70
2019-05-10T13:16:13.865Z,3.75
2019-05-10T13:18:23.095Z,3.05
2019-05-10T13:20:24.589Z,2.25
2019-05-10T13:22:36.768Z,5.33
2019-05-10T13:24:33.438Z,6.90
2019-05-10T13:26:37.454Z,8.03
2019-05-10T13:28:41.446Z,3.10
2019-05-10T13:30:45.105Z,2.60
2019-05-10T13:32:52.914Z,3.00
2019-05-10T13:34:54.086Z,3.20
2019-05-10T13:36:58.013Z,3.00
2019-05-10T13:39:02.385Z,2.20
2019-05-10T13:41:05.925Z,3.35
2019-05-10T13:43:09.498Z,2.75
2019-05-10T13:45:13.781Z,2.65
2019-05-10T13:47:17.241Z,3.52
2019-05-10T13:49:20.787Z,2.90
2019-05-10T13:51:24.341Z,3.58
2019-05-10T13:53:28.202Z,3.25
2019-05-10T13:55:32.698Z,3.77
2019-05-10T13:57:36.257Z,4.30
2019-05-10T13:59:40.354Z,3.90
2019-05-10T14:01:49.564Z,4.83
2019-05-10T14:04:00.097Z,4.60
2019-05-10T14:05:55.251Z,5.22
2019-05-10T14:07:58.975Z,3.92
2019-05-10T14:10:02.560Z,4.30
2019-05-10T14:12:06.876Z,6.05
2019-05-10T14:14:14.720Z,4.17
2019-05-10T14:16:19.676Z,4.67
2019-05-10T14:18:22.429Z,8.13
2019-05-10T14:20:27.617Z,7.65
2019-05-10T14:22:31.990Z,9.28
2019-05-10T14:24:35.890Z,8.45
2019-05-10T14:26:39.796Z,8.30
2019-05-10T14:28:47.431Z,5.95
2019-05-10T14:30:57.025Z,8.23
2019-05-10T14:32:56.587Z,5.70
2019-05-10T14:35:00.425Z,5.90
2019-05-10T14:37:04.033Z,5.97
2019-05-10T14:39:08.645Z,4.97
2019-05-10T14:41:13.415Z,5.30
2019-05-10T14:43:17.268Z,5.10
2019-05-10T14:45:21.283Z,5.97
2019-05-10T14:47:25.190Z,6.67
2019-05-10T14:49:29.780Z,6.92
2019-05-10T14:51:49.339Z,6.17
2019-05-10T14:53:38.617Z,5.33
2019-05-10T14:55:42.469Z,5.33
2019-05-10T14:57:46.273Z,7.50
2019-05-10T14:59:49.748Z,6.42
2019-05-10T15:01:53.654Z,6.17
2019-05-10T15:03:57.578Z,6.08
2019-05-10T15:06:01.732Z,5.25
2019-05-10T15:08:05.565Z,5.45
2019-05-10T15:10:09.574Z,7.40
2019-05-10T15:12:16.445Z,5.87
2019-05-10T15:14:18.716Z,4.60
2019-05-10T15:16:27.047Z,4.17
2019-05-10T15:18:27.981Z,4.53
2019-05-10T15:20:31.534Z,13.80
2019-05-10T15:22:35.564Z,41.28
2019-05-10T15:24:39.477Z,11.97
2019-05-10T15:26:44.499Z,4.15
2019-05-10T15:28:49.530Z,3.20
2019-05-10T15:30:53.134Z,3.60
2019-05-10T15:32:57.564Z,5.00
2019-05-10T15:35:06.925Z,4.28
2019-05-10T15:37:09.302Z,3.40
2019-05-10T15:39:12.196Z,2.80
2019-05-10T15:41:16.835Z,3.58
2019-05-10T15:43:21.122Z,3.20
2019-05-10T15:45:24.968Z,3.12
2019-05-10T15:47:28.501Z,3.05
2019-05-10T15:49:32.053Z,4.17
2019-05-10T15:51:36.872Z,3.42
2019-05-10T15:53:40.919Z,5.58
2019-05-10T15:55:44.454Z,5.05
2019-05-10T15:59:23.800Z,6.75
2019-05-10T15:59:56.621Z,21.80
2019-05-10T16:02:00.430Z,6.15
2019-05-10T16:04:04.334Z,4.17
2019-05-10T16:06:08.219Z,4.92
2019-05-10T16:08:13.774Z,21.35
2019-05-10T16:10:17.778Z,11.75
2019-05-10T16:12:21.701Z,8.08
2019-05-10T16:14:25.241Z,8.13
2019-05-10T16:16:30.333Z,10.13
2019-05-10T16:18:39.928Z,7.55
2019-05-10T16:20:40.137Z,9.18
2019-05-10T16:22:43.965Z,8.90
2019-05-10T16:24:47.617Z,6.42
2019-05-10T16:26:54.635Z,6.62
2019-05-10T16:29:01.664Z,6.42
2019-05-10T16:31:01.967Z,7.20
2019-05-10T16:33:09.800Z,5.97
2019-05-10T16:35:14.311Z,6.53
2019-05-10T16:37:16.470Z,5.62
2019-05-10T16:39:21.454Z,4.80
2019-05-10T16:41:26.906Z,5.10
2019-05-10T16:43:30.646Z,4.60
2019-05-10T16:45:34.513Z,15.63
2019-05-10T16:47:39.135Z,20.40
2019-05-10T16:49:47.527Z,29.25
2019-05-10T16:51:49.928Z,11.75
2019-05-10T16:53:53.788Z,4.28
2019-05-10T16:55:58.209Z,27.58
2019-05-10T16:58:02.114Z,25.85
2019-05-10T17:00:10.610Z,11.28
2019-05-10T17:02:14.817Z,13.78
2019-05-10T17:04:18.596Z,16.40
2019-05-10T17:06:22.317Z,23.30
2019-05-10T17:08:30.779Z,31.30
2019-05-10T17:10:33.081Z,30.08
2019-05-10T17:12:37.334Z,26.82
2019-05-10T17:14:41.233Z,21.15
2019-05-10T17:16:49.450Z,44.03
2019-05-10T17:18:55.114Z,21.12
2019-05-10T17:20:56.729Z,17.73
2019-05-10T17:23:08.097Z,22.35
2019-05-10T17:25:08.669Z,8.10
2019-05-10T17:27:12.549Z,9.40
2019-05-10T17:29:16.454Z,11.05
2019-05-10T17:31:20.362Z,13.60
2019-05-10T17:33:23.978Z,10.32
2019-05-10T17:35:27.862Z,10.85
2019-05-10T17:37:35.694Z,20.35
2019-05-10T17:39:37.309Z,31.30
2019-05-10T17:41:41.213Z,49.27
2019-05-10T17:43:45.333Z,403.80
2019-05-10T17:45:49.264Z,211.40
2019-05-10T17:47:53.297Z,65.80
2019-05-10T17:49:56.989Z,22.10
2019-05-10T17:52:01.472Z,20.95
2019-05-10T17:54:05.573Z,24.63
2019-05-10T17:56:09.190Z,19.98
2019-05-10T17:58:13.065Z,21.60
2019-05-10T18:00:17.501Z,20.92
2019-05-10T18:02:21.059Z,24.30
2019-05-10T18:04:24.613Z,65.20
2019-05-10T18:06:28.336Z,36.60
2019-05-10T18:08:31.913Z,47.30
2019-05-10T18:10:35.798Z,30.70
2019-05-10T18:12:39.457Z,25.15
2019-05-10T18:14:43.314Z,28.52
2019-05-10T18:16:49.960Z,27.48
2019-05-10T18:18:52.293Z,27.90
2019-05-10T18:20:56.328Z,26.05
2019-05-10T18:23:00.219Z,17.62
2019-05-10T18:25:04.065Z,26.95
2019-05-10T18:27:07.677Z,23.18
2019-05-10T18:29:11.781Z,31.82
2019-05-10T18:31:15.330Z,213.28
2019-05-10T18:33:18.947Z,80.77
2019-05-10T18:35:22.638Z,43.80
2019-05-10T18:37:27.053Z,43.60
2019-05-10T18:39:31.547Z,39.75
2019-05-10T18:41:35.513Z,57.13
2019-05-10T18:43:40.768Z,39.33
2019-05-10T18:45:44.799Z,35.25
2019-05-10T18:47:48.349Z,34.35
2019-05-10T18:49:52.141Z,32.25
2019-05-10T18:52:03.537Z,31.87
2019-05-10T18:54:01.384Z,34.15
2019-05-10T18:56:05.134Z,45.58
2019-05-10T18:58:08.683Z,37.65
2019-05-10T19:00:17.649Z,23.12
2019-05-10T19:02:19.963Z,21.02
2019-05-10T19:04:23.713Z,12.63
2019-05-10T19:06:31.115Z,13.45
2019-05-10T19:08:33.310Z,15.48
2019-05-10T19:10:37.213Z,27.07
2019-05-10T19:12:41.358Z,45.52
2019-05-10T19:14:45.437Z,33.60
2019-05-10T19:16:49.254Z,45.40
2019-05-10T19:18:56.064Z,63.45
2019-05-10T19:20:58.080Z,70.42
2019-05-10T19:23:05.046Z,63.05
2019-05-10T19:25:11.564Z,46.70
2019-05-10T19:27:12.414Z,57.90
2019-05-10T19:29:16.757Z,83.50
2019-05-10T19:31:23.061Z,179.07
2019-05-10T19:33:29.882Z,140.43
2019-05-10T19:35:35.869Z,106.03
2019-05-10T19:37:39.649Z,96.50
2019-05-10T19:39:43.481Z,61.28
2019-05-10T19:41:47.161Z,59.03
2019-05-10T19:43:56.077Z,57.08
2019-05-10T19:45:59.577Z,67.47
2019-05-10T19:48:05.588Z,66.60
2019-05-10T19:50:08.105Z,74.07
2019-05-10T19:52:12.531Z,66.67
2019-05-10T19:54:19.357Z,61.92
2019-05-10T19:56:22.057Z,48.70
2019-05-10T19:58:26.511Z,51.02
2019-05-10T20:00:31.307Z,54.23
2019-05-10T20:02:35.213Z,53.63
2019-05-10T20:04:39.732Z,45.78
2019-05-10T20:06:43.549Z,39.48
2019-05-10T20:08:47.442Z,39.90
2019-05-10T20:10:51.366Z,37.63
2019-05-10T20:12:54.951Z,31.27
2019-05-10T20:14:58.846Z,22.70
2019-05-10T20:17:02.447Z,21.97
2019-05-10T20:19:09.274Z,19.92
2019-05-10T20:21:12.338Z,16.97
2019-05-10T20:23:16.849Z,16.55
2019-05-10T20:25:20.862Z,16.50
2019-05-10T20:27:25.414Z,17.02
2019-05-10T20:29:29.374Z,17.60
2019-05-10T20:31:33.356Z,17.35
2019-05-10T20:33:38.294Z,19.77
2019-05-10T20:35:41.834Z,19.15
2019-05-10T20:38:00.126Z,20.48
2019-05-10T20:39:51.241Z,20.82
2019-05-10T20:41:55.052Z,18.37
2019-05-10T20:43:58.673Z,20.37
2019-05-10T20:46:03.119Z,19.10
2019-05-10T20:48:07.053Z,20.23
2019-05-10T20:50:12.157Z,19.77
2019-05-10T20:52:15.725Z,19.00
2019-05-10T20:54:19.345Z,19.30
2019-05-10T20:56:22.949Z,20.20
2019-05-10T20:58:26.861Z,22.00
2019-05-10T21:00:30.465Z,20.23
2019-05-10T21:02:34.590Z,21.35
2019-05-10T21:04:38.142Z,25.72
2019-05-10T21:06:41.688Z,32.25
2019-05-10T21:08:48.157Z,32.15
2019-05-10T21:10:51.837Z,31.87
2019-05-10T21:12:55.364Z,27.85
2019-05-10T21:14:59.150Z,28.70
2019-05-10T21:17:03.055Z,25.80
2019-05-10T21:19:06.770Z,27.10
2019-05-10T21:21:10.338Z,23.42
2019-05-10T21:23:14.150Z,19.67
2019-05-10T21:25:17.982Z,19.35
2019-05-10T21:27:21.531Z,17.23
2019-05-10T21:29:25.336Z,17.12
2019-05-10T21:31:28.845Z,17.57
2019-05-10T21:33:32.457Z,18.23
2019-05-10T21:35:36.206Z,18.02
2019-05-10T21:37:39.753Z,20.68
2019-05-10T21:39:43.646Z,23.85
2019-05-10T21:41:47.665Z,29.45
2019-05-10T21:43:51.135Z,28.77
2019-05-10T21:45:54.956Z,28.77
2019-05-10T21:47:58.510Z,163.47
2019-05-10T21:50:02.058Z,73.95
2019-05-10T21:52:05.949Z,52.15
2019-05-10T21:54:10.265Z,38.78
2019-05-10T21:56:14.201Z,33.98
2019-05-10T21:58:18.085Z,23.52
2019-05-10T22:00:24.576Z,31.87
2019-05-10T22:02:29.251Z,30.12
2019-05-10T22:04:32.813Z,27.22
2019-05-10T22:06:36.449Z,21.62
2019-05-10T22:08:49.079Z,20.77
2019-05-10T22:10:45.658Z,19.17
2019-05-10T22:12:49.201Z,20.68
2019-05-10T22:14:53.103Z,20.70
2019-05-10T22:16:56.650Z,17.40
2019-05-10T22:19:02.258Z,19.15
2019-05-10T22:21:07.070Z,18.95
2019-05-10T22:23:10.945Z,17.48
2019-05-10T22:25:14.601Z,16.75
2019-05-10T22:27:18.186Z,21.30
2019-05-10T22:29:21.736Z,19.30
2019-05-10T22:31:25.365Z,20.48
2019-05-10T22:33:29.166Z,17.27
2019-05-10T22:35:33.077Z,18.98
2019-05-10T22:37:36.973Z,17.20
2019-05-10T22:39:40.606Z,16.97
2019-05-10T22:41:44.414Z,20.17
2019-05-10T22:43:48.061Z,18.73
2019-05-10T22:45:52.010Z,18.07
2019-05-10T22:47:55.482Z,19.00
2019-05-10T22:49:59.073Z,20.85
2019-05-10T22:52:02.953Z,19.40
2019-05-10T22:54:06.788Z,19.42
2019-05-10T22:56:10.329Z,18.80
2019-05-10T22:58:14.682Z,19.92
2019-05-10T23:00:18.881Z,23.00
2019-05-10T23:02:22.417Z,24.32
2019-05-10T23:04:25.928Z,24.30
2019-05-10T23:06:29.657Z,20.55
2019-05-10T23:08:33.199Z,18.52
2019-05-10T23:10:36.745Z,18.73
2019-05-10T23:12:40.439Z,20.88
2019-05-10T23:14:44.821Z,20.10
2019-05-10T23:16:48.373Z,21.23
2019-05-10T23:18:52.181Z,22.37
2019-05-10T23:20:56.313Z,20.70
2019-05-10T23:22:59.876Z,20.88
2019-05-10T23:25:03.938Z,21.50
2019-05-10T23:27:08.625Z,23.15
2019-05-10T23:29:12.451Z,20.00
2019-05-10T23:31:16.215Z,18.67
2019-05-10T23:33:19.759Z,22.17
2019-05-10T23:35:23.372Z,21.00
2019-05-10T23:37:26.849Z,17.62
2019-05-10T23:39:40.295Z,17.07
2019-05-10T23:41:35.974Z,16.90
2019-05-10T23:43:40.075Z,16.50
2019-05-10T23:45:43.773Z,16.37
2019-05-10T23:47:47.298Z,19.00
2019-05-10T23:49:50.841Z,16.85
2019-05-10T23:51:54.681Z,13.75
2019-05-10T23:53:58.613Z,13.83
2019-05-10T23:56:02.237Z,15.53
2019-05-10T23:58:05.713Z,14.10
